sensor_id;sensor_type;location;lat;lon;timestamp;pressure;altitude;pressure_sealevel;temperature;humidity
59531;BME280;45349;48.692;8.186;2023-03-04T00:02:05;99222.56;;;-0.75;100.00
59531;BME280;45349;48.692;8.186;2023-03-04T00:04:32;99219.22;;;-0.77;100.00
59531;BME280;45349;48.692;8.186;2023-03-04T00:06:59;99217.44;;;-0.75;100.00
59531;BME280;45349;48.692;8.186;2023-03-04T00:09:27;99219.38;;;-0.82;100.00
59531;BME280;45349;48.692;8.186;2023-03-04T00:11:53;99224.97;;;-0.93;100.00
59531;BME280;45349;48.692;8.186;2023-03-04T00:14:20;99223.22;;;-0.92;100.00
59531;BME280;45349;48.692;8.186;2023-03-04T00:16:47;99225.91;;;-0.95;100.00
59531;BME280;45349;48.692;8.186;2023-03-04T00:19:14;99219.97;;;-0.96;100.00
59531;BME280;45349;48.692;8.186;2023-03-04T00:21:40;99221.38;;;-0.88;100.00
59531;BME280;45349;48.692;8.186;2023-03-04T00:24:07;99223.75;;;-0.84;100.00
59531;BME280;45349;48.692;8.186;2023-03-04T00:26:35;99219.13;;;-0.96;100.00
59531;BME280;45349;48.692;8.186;2023-03-04T00:29:01;99215.03;;;-1.00;100.00
59531;BME280;45349;48.692;8.186;2023-03-04T00:31:28;99221.75;;;-0.98;100.00
59531;BME280;45349;48.692;8.186;2023-03-04T00:33:55;99220.91;;;-0.98;100.00
59531;BME280;45349;48.692;8.186;2023-03-04T00:36:21;99221.94;;;-1.02;100.00
59531;BME280;45349;48.692;8.186;2023-03-04T00:38:49;99222.66;;;-0.99;100.00
59531;BME280;45349;48.692;8.186;2023-03-04T00:41:15;99225.28;;;-1.00;100.00
59531;BME280;45349;48.692;8.186;2023-03-04T00:43:43;99218.59;;;-1.05;100.00
59531;BME280;45349;48.692;8.186;2023-03-04T00:46:10;99217.22;;;-1.12;100.00
59531;BME280;45349;48.692;8.186;2023-03-04T00:48:37;99220.06;;;-1.20;100.00
59531;BME280;45349;48.692;8.186;2023-03-04T00:51:04;99220.44;;;-1.07;100.00
59531;BME280;45349;48.692;8.186;2023-03-04T00:53:31;99220.56;;;-1.10;100.00
59531;BME280;45349;48.692;8.186;2023-03-04T00:55:58;99216.56;;;-1.17;100.00
59531;BME280;45349;48.692;8.186;2023-03-04T00:58:24;99220.66;;;-1.13;100.00
59531;BME280;45349;48.692;8.186;2023-03-04T01:00:52;99218.88;;;-1.11;100.00
59531;BME280;45349;48.692;8.186;2023-03-04T01:03:19;99217.59;;;-1.21;100.00
59531;BME280;45349;48.692;8.186;2023-03-04T01:05:45;99213.47;;;-1.25;100.00
59531;BME280;45349;48.692;8.186;2023-03-04T01:08:12;99214.41;;;-1.28;100.00
59531;BME280;45349;48.692;8.186;2023-03-04T01:10:38;99221.44;;;-1.33;100.00
59531;BME280;45349;48.692;8.186;2023-03-04T01:13:05;99203.75;;;-1.39;100.00
59531;BME280;45349;48.692;8.186;2023-03-04T01:15:32;99205.50;;;-1.40;100.00
59531;BME280;45349;48.692;8.186;2023-03-04T01:17:59;99210.16;;;-1.27;100.00
59531;BME280;45349;48.692;8.186;2023-03-04T01:20:26;99204.50;;;-1.36;100.00
59531;BME280;45349;48.692;8.186;2023-03-04T01:22:53;99215.03;;;-1.43;100.00
59531;BME280;45349;48.692;8.186;2023-03-04T01:25:19;99207.34;;;-1.43;100.00
59531;BME280;45349;48.692;8.186;2023-03-04T01:27:46;99211.56;;;-1.42;100.00
59531;BME280;45349;48.692;8.186;2023-03-04T01:30:12;99206.19;;;-1.36;100.00
59531;BME280;45349;48.692;8.186;2023-03-04T01:32:39;99214.84;;;-1.39;100.00
59531;BME280;45349;48.692;8.186;2023-03-04T01:35:08;99203.88;;;-1.42;100.00
59531;BME280;45349;48.692;8.186;2023-03-04T01:37:34;99207.06;;;-1.36;100.00
59531;BME280;45349;48.692;8.186;2023-03-04T01:40:01;99206.53;;;-1.44;100.00
59531;BME280;45349;48.692;8.186;2023-03-04T01:42:32;99207.69;;;-1.53;100.00
59531;BME280;45349;48.692;8.186;2023-03-04T01:44:59;99208.53;;;-1.52;100.00
59531;BME280;45349;48.692;8.186;2023-03-04T01:47:28;99206.03;;;-1.54;100.00
59531;BME280;45349;48.692;8.186;2023-03-04T01:49:56;99207.66;;;-1.51;100.00
59531;BME280;45349;48.692;8.186;2023-03-04T01:52:26;99198.66;;;-1.61;100.00
59531;BME280;45349;48.692;8.186;2023-03-04T01:54:53;99204.38;;;-1.55;100.00
59531;BME280;45349;48.692;8.186;2023-03-04T01:57:21;99198.47;;;-1.57;100.00
59531;BME280;45349;48.692;8.186;2023-03-04T02:00:13;99200.44;;;-1.64;100.00
59531;BME280;45349;48.692;8.186;2023-03-04T02:02:44;99198.63;;;-1.60;100.00
59531;BME280;45349;48.692;8.186;2023-03-04T02:05:11;99197.97;;;-1.65;100.00
59531;BME280;45349;48.692;8.186;2023-03-04T02:07:40;99199.63;;;-1.64;100.00
59531;BME280;45349;48.692;8.186;2023-03-04T02:10:10;99198.78;;;-1.65;100.00
59531;BME280;45349;48.692;8.186;2023-03-04T02:12:37;99202.19;;;-1.64;100.00
59531;BME280;45349;48.692;8.186;2023-03-04T02:15:05;99197.34;;;-1.72;100.00
59531;BME280;45349;48.692;8.186;2023-03-04T02:17:33;99195.09;;;-1.80;100.00
59531;BME280;45349;48.692;8.186;2023-03-04T02:20:03;99200.75;;;-1.71;100.00
59531;BME280;45349;48.692;8.186;2023-03-04T02:22:35;99200.09;;;-1.76;100.00
59531;BME280;45349;48.692;8.186;2023-03-04T02:25:10;99198.66;;;-1.84;100.00
59531;BME280;45349;48.692;8.186;2023-03-04T02:27:39;99199.53;;;-1.85;100.00
59531;BME280;45349;48.692;8.186;2023-03-04T02:30:08;99192.22;;;-1.94;100.00
59531;BME280;45349;48.692;8.186;2023-03-04T02:32:35;99199.94;;;-1.96;100.00
59531;BME280;45349;48.692;8.186;2023-03-04T02:35:03;99195.72;;;-1.97;100.00
59531;BME280;45349;48.692;8.186;2023-03-04T02:37:32;99193.16;;;-1.97;100.00
59531;BME280;45349;48.692;8.186;2023-03-04T02:39:59;99187.09;;;-1.94;100.00
59531;BME280;45349;48.692;8.186;2023-03-04T02:42:26;99190.31;;;-1.89;100.00
59531;BME280;45349;48.692;8.186;2023-03-04T02:45:00;99192.88;;;-1.89;100.00
59531;BME280;45349;48.692;8.186;2023-03-04T02:47:27;99188.91;;;-1.98;100.00
59531;BME280;45349;48.692;8.186;2023-03-04T02:49:54;99188.22;;;-2.01;100.00
59531;BME280;45349;48.692;8.186;2023-03-04T02:52:25;99192.47;;;-2.02;100.00
59531;BME280;45349;48.692;8.186;2023-03-04T02:54:51;99188.25;;;-2.03;100.00
59531;BME280;45349;48.692;8.186;2023-03-04T02:57:18;99189.03;;;-2.01;100.00
59531;BME280;45349;48.692;8.186;2023-03-04T02:59:50;99188.16;;;-2.00;100.00
59531;BME280;45349;48.692;8.186;2023-03-04T03:02:21;99189.81;;;-1.99;100.00
59531;BME280;45349;48.692;8.186;2023-03-04T03:04:49;99186.78;;;-2.09;100.00
59531;BME280;45349;48.692;8.186;2023-03-04T03:07:18;99189.56;;;-2.15;100.00
59531;BME280;45349;48.692;8.186;2023-03-04T03:09:44;99186.09;;;-2.14;100.00
59531;BME280;45349;48.692;8.186;2023-03-04T03:12:11;99179.44;;;-2.18;100.00
59531;BME280;45349;48.692;8.186;2023-03-04T03:14:38;99183.97;;;-2.25;100.00
59531;BME280;45349;48.692;8.186;2023-03-04T03:17:06;99180.41;;;-2.20;100.00
59531;BME280;45349;48.692;8.186;2023-03-04T03:19:34;99182.66;;;-2.13;100.00
59531;BME280;45349;48.692;8.186;2023-03-04T03:22:04;99171.75;;;-2.18;100.00
59531;BME280;45349;48.692;8.186;2023-03-04T03:24:31;99176.22;;;-2.23;100.00
59531;BME280;45349;48.692;8.186;2023-03-04T03:26:57;99177.06;;;-2.23;100.00
59531;BME280;45349;48.692;8.186;2023-03-04T03:29:24;99182.41;;;-2.29;100.00
59531;BME280;45349;48.692;8.186;2023-03-04T03:31:51;99177.41;;;-2.32;100.00
59531;BME280;45349;48.692;8.186;2023-03-04T03:34:19;99175.78;;;-2.34;100.00
59531;BME280;45349;48.692;8.186;2023-03-04T03:36:48;99171.41;;;-2.31;100.00
59531;BME280;45349;48.692;8.186;2023-03-04T03:39:15;99173.28;;;-2.36;100.00
59531;BME280;45349;48.692;8.186;2023-03-04T03:41:42;99176.78;;;-2.39;100.00
59531;BME280;45349;48.692;8.186;2023-03-04T03:44:08;99176.00;;;-2.41;100.00
59531;BME280;45349;48.692;8.186;2023-03-04T03:46:35;99175.28;;;-2.44;100.00
59531;BME280;45349;48.692;8.186;2023-03-04T03:49:01;99179.53;;;-2.45;100.00
59531;BME280;45349;48.692;8.186;2023-03-04T03:51:28;99178.84;;;-2.48;100.00
59531;BME280;45349;48.692;8.186;2023-03-04T03:53:56;99171.09;;;-2.47;100.00
59531;BME280;45349;48.692;8.186;2023-03-04T03:56:22;99176.53;;;-2.32;100.00
59531;BME280;45349;48.692;8.186;2023-03-04T03:58:49;99178.44;;;-2.38;100.00
59531;BME280;45349;48.692;8.186;2023-03-04T04:01:16;99179.72;;;-2.49;100.00
59531;BME280;45349;48.692;8.186;2023-03-04T04:03:42;99173.97;;;-2.56;100.00
59531;BME280;45349;48.692;8.186;2023-03-04T04:06:10;99178.28;;;-2.57;100.00
59531;BME280;45349;48.692;8.186;2023-03-04T04:08:37;99180.19;;;-2.63;100.00
59531;BME280;45349;48.692;8.186;2023-03-04T04:11:05;99177.41;;;-2.57;100.00
59531;BME280;45349;48.692;8.186;2023-03-04T04:13:31;99188.28;;;-2.50;100.00
59531;BME280;45349;48.692;8.186;2023-03-04T04:15:58;99193.44;;;-2.52;100.00
59531;BME280;45349;48.692;8.186;2023-03-04T04:18:24;99186.09;;;-2.61;100.00
59531;BME280;45349;48.692;8.186;2023-03-04T04:20:51;99188.00;;;-2.67;100.00
59531;BME280;45349;48.692;8.186;2023-03-04T04:23:18;99191.09;;;-2.58;100.00
59531;BME280;45349;48.692;8.186;2023-03-04T04:25:44;99183.78;;;-2.68;100.00
59531;BME280;45349;48.692;8.186;2023-03-04T04:28:12;99190.56;;;-2.67;100.00
59531;BME280;45349;48.692;8.186;2023-03-04T04:30:42;99187.25;;;-2.70;100.00
59531;BME280;45349;48.692;8.186;2023-03-04T04:33:09;99194.41;;;-2.80;100.00
59531;BME280;45349;48.692;8.186;2023-03-04T04:35:36;99187.53;;;-2.78;100.00
59531;BME280;45349;48.692;8.186;2023-03-04T04:38:03;99192.75;;;-2.81;100.00
59531;BME280;45349;48.692;8.186;2023-03-04T04:40:30;99186.00;;;-2.84;100.00
59531;BME280;45349;48.692;8.186;2023-03-04T04:42:57;99189.59;;;-2.89;100.00
59531;BME280;45349;48.692;8.186;2023-03-04T04:45:32;99188.81;;;-2.91;100.00
59531;BME280;45349;48.692;8.186;2023-03-04T04:47:59;99188.81;;;-2.91;100.00
59531;BME280;45349;48.692;8.186;2023-03-04T04:50:26;99186.84;;;-2.83;100.00
59531;BME280;45349;48.692;8.186;2023-03-04T04:52:52;99190.22;;;-2.83;100.00
59531;BME280;45349;48.692;8.186;2023-03-04T04:55:19;99198.88;;;-2.87;100.00
59531;BME280;45349;48.692;8.186;2023-03-04T04:57:45;99198.94;;;-2.88;100.00
59531;BME280;45349;48.692;8.186;2023-03-04T05:00:13;99208.16;;;-2.84;100.00
59531;BME280;45349;48.692;8.186;2023-03-04T05:02:41;99206.03;;;-2.97;100.00
59531;BME280;45349;48.692;8.186;2023-03-04T05:05:08;99214.00;;;-3.06;100.00
59531;BME280;45349;48.692;8.186;2023-03-04T05:07:35;99205.78;;;-3.16;100.00
59531;BME280;45349;48.692;8.186;2023-03-04T05:10:02;99208.41;;;-3.17;100.00
59531;BME280;45349;48.692;8.186;2023-03-04T05:12:29;99211.72;;;-3.15;100.00
59531;BME280;45349;48.692;8.186;2023-03-04T05:14:56;99221.09;;;-3.16;100.00
59531;BME280;45349;48.692;8.186;2023-03-04T05:17:22;99217.09;;;-3.23;100.00
59531;BME280;45349;48.692;8.186;2023-03-04T05:19:50;99214.47;;;-3.21;100.00
59531;BME280;45349;48.692;8.186;2023-03-04T05:22:16;99207.91;;;-3.29;100.00
59531;BME280;45349;48.692;8.186;2023-03-04T05:24:43;99211.44;;;-3.33;100.00
59531;BME280;45349;48.692;8.186;2023-03-04T05:27:10;99208.88;;;-3.33;100.00
59531;BME280;45349;48.692;8.186;2023-03-04T05:29:37;99216.22;;;-3.22;100.00
59531;BME280;45349;48.692;8.186;2023-03-04T05:32:03;99212.56;;;-3.15;100.00
59531;BME280;45349;48.692;8.186;2023-03-04T05:34:30;99201.50;;;-3.15;100.00
59531;BME280;45349;48.692;8.186;2023-03-04T05:36:58;99207.78;;;-3.24;100.00
59531;BME280;45349;48.692;8.186;2023-03-04T05:39:24;99216.34;;;-3.27;100.00
59531;BME280;45349;48.692;8.186;2023-03-04T05:41:51;99219.00;;;-3.30;100.00
59531;BME280;45349;48.692;8.186;2023-03-04T05:44:18;99219.78;;;-3.28;100.00
59531;BME280;45349;48.692;8.186;2023-03-04T05:46:44;99217.47;;;-3.35;100.00
59531;BME280;45349;48.692;8.186;2023-03-04T05:49:11;99227.03;;;-3.42;100.00
59531;BME280;45349;48.692;8.186;2023-03-04T05:51:37;99217.78;;;-3.45;100.00
59531;BME280;45349;48.692;8.186;2023-03-04T05:54:05;99224.44;;;-3.41;100.00
59531;BME280;45349;48.692;8.186;2023-03-04T05:56:32;99227.81;;;-3.40;100.00
59531;BME280;45349;48.692;8.186;2023-03-04T05:58:58;99233.00;;;-3.42;100.00
59531;BME280;45349;48.692;8.186;2023-03-04T06:01:25;99240.50;;;-3.37;100.00
59531;BME280;45349;48.692;8.186;2023-03-04T06:03:52;99244.78;;;-3.37;100.00
59531;BME280;45349;48.692;8.186;2023-03-04T06:06:18;99248.22;;;-3.38;100.00
59531;BME280;45349;48.692;8.186;2023-03-04T06:08:45;99249.13;;;-3.41;100.00
59531;BME280;45349;48.692;8.186;2023-03-04T06:11:13;99255.09;;;-3.41;100.00
59531;BME280;45349;48.692;8.186;2023-03-04T06:13:39;99264.63;;;-3.47;100.00
59531;BME280;45349;48.692;8.186;2023-03-04T06:16:06;99260.41;;;-3.48;100.00
59531;BME280;45349;48.692;8.186;2023-03-04T06:18:33;99269.78;;;-3.49;100.00
59531;BME280;45349;48.692;8.186;2023-03-04T06:21:00;99265.47;;;-3.47;100.00
59531;BME280;45349;48.692;8.186;2023-03-04T06:23:30;99271.31;;;-3.43;100.00
59531;BME280;45349;48.692;8.186;2023-03-04T06:25:58;99275.44;;;-3.39;100.00
59531;BME280;45349;48.692;8.186;2023-03-04T06:28:27;99283.75;;;-3.32;100.00
59531;BME280;45349;48.692;8.186;2023-03-04T06:30:54;99281.25;;;-3.34;100.00
59531;BME280;45349;48.692;8.186;2023-03-04T06:33:22;99279.47;;;-3.32;100.00
59531;BME280;45349;48.692;8.186;2023-03-04T06:35:53;99281.06;;;-3.28;100.00
59531;BME280;45349;48.692;8.186;2023-03-04T06:38:20;99277.69;;;-3.28;100.00
59531;BME280;45349;48.692;8.186;2023-03-04T06:40:46;99279.16;;;-3.21;100.00
59531;BME280;45349;48.692;8.186;2023-03-04T06:43:13;99283.88;;;-3.08;100.00
59531;BME280;45349;48.692;8.186;2023-03-04T06:45:41;99283.06;;;-3.11;100.00
59531;BME280;45349;48.692;8.186;2023-03-04T06:48:07;99281.38;;;-3.10;100.00
59531;BME280;45349;48.692;8.186;2023-03-04T06:50:34;99279.31;;;-2.99;100.00
59531;BME280;45349;48.692;8.186;2023-03-04T06:53:00;99284.22;;;-2.92;100.00
59531;BME280;45349;48.692;8.186;2023-03-04T06:55:27;99278.19;;;-2.90;100.00
59531;BME280;45349;48.692;8.186;2023-03-04T06:57:53;99275.53;;;-2.87;100.00
59531;BME280;45349;48.692;8.186;2023-03-04T07:00:21;99279.75;;;-2.86;100.00
59531;BME280;45349;48.692;8.186;2023-03-04T07:02:50;99277.94;;;-2.82;100.00
59531;BME280;45349;48.692;8.186;2023-03-04T07:05:17;99276.00;;;-2.75;100.00
59531;BME280;45349;48.692;8.186;2023-03-04T07:07:43;99277.56;;;-2.71;100.00
59531;BME280;45349;48.692;8.186;2023-03-04T07:10:10;99270.59;;;-2.66;100.00
59531;BME280;45349;48.692;8.186;2023-03-04T07:12:37;99278.75;;;-2.55;100.00
59531;BME280;45349;48.692;8.186;2023-03-04T07:15:04;99279.47;;;-2.51;100.00
59531;BME280;45349;48.692;8.186;2023-03-04T07:17:31;99285.09;;;-2.41;100.00
59531;BME280;45349;48.692;8.186;2023-03-04T07:20:00;99281.66;;;-2.40;100.00
59531;BME280;45349;48.692;8.186;2023-03-04T07:22:27;99289.28;;;-2.39;100.00
59531;BME280;45349;48.692;8.186;2023-03-04T07:24:54;99296.03;;;-2.36;100.00
59531;BME280;45349;48.692;8.186;2023-03-04T07:27:20;99296.72;;;-2.32;100.00
59531;BME280;45349;48.692;8.186;2023-03-04T07:29:47;99294.84;;;-2.27;100.00
59531;BME280;45349;48.692;8.186;2023-03-04T07:32:13;99294.72;;;-2.23;100.00
59531;BME280;45349;48.692;8.186;2023-03-04T07:34:40;99295.44;;;-2.19;100.00
59531;BME280;45349;48.692;8.186;2023-03-04T07:37:08;99296.88;;;-2.12;100.00
59531;BME280;45349;48.692;8.186;2023-03-04T07:39:34;99306.06;;;-2.06;100.00
59531;BME280;45349;48.692;8.186;2023-03-04T07:42:01;99306.91;;;-2.05;100.00
59531;BME280;45349;48.692;8.186;2023-03-04T07:44:28;99313.69;;;-2.04;100.00
59531;BME280;45349;48.692;8.186;2023-03-04T07:46:54;99316.84;;;-1.98;100.00
59531;BME280;45349;48.692;8.186;2023-03-04T07:49:21;99327.50;;;-1.85;100.00
59531;BME280;45349;48.692;8.186;2023-03-04T07:51:47;99321.16;;;-1.74;100.00
59531;BME280;45349;48.692;8.186;2023-03-04T07:54:15;99327.56;;;-1.63;100.00
59531;BME280;45349;48.692;8.186;2023-03-04T07:56:44;99330.00;;;-1.59;100.00
59531;BME280;45349;48.692;8.186;2023-03-04T07:59:11;99325.53;;;-1.54;100.00
59531;BME280;45349;48.692;8.186;2023-03-04T08:01:37;99331.25;;;-1.48;100.00
59531;BME280;45349;48.692;8.186;2023-03-04T08:04:05;99330.03;;;-1.37;100.00
59531;BME280;45349;48.692;8.186;2023-03-04T08:06:33;99324.00;;;-1.36;100.00
59531;BME280;45349;48.692;8.186;2023-03-04T08:09:01;99331.31;;;-1.25;100.00
59531;BME280;45349;48.692;8.186;2023-03-04T08:11:30;99325.00;;;-1.16;100.00
59531;BME280;45349;48.692;8.186;2023-03-04T08:13:57;99332.19;;;-1.04;100.00
59531;BME280;45349;48.692;8.186;2023-03-04T08:16:24;99325.81;;;-0.94;100.00
59531;BME280;45349;48.692;8.186;2023-03-04T08:18:53;99327.13;;;-0.83;100.00
59531;BME280;45349;48.692;8.186;2023-03-04T08:21:21;99331.31;;;-0.60;100.00
59531;BME280;45349;48.692;8.186;2023-03-04T08:23:49;99328.31;;;-0.28;100.00
59531;BME280;45349;48.692;8.186;2023-03-04T08:26:18;99330.91;;;0.11;100.00
59531;BME280;45349;48.692;8.186;2023-03-04T08:28:46;99333.66;;;0.47;100.00
59531;BME280;45349;48.692;8.186;2023-03-04T08:31:14;99342.09;;;0.68;98.98
59531;BME280;45349;48.692;8.186;2023-03-04T08:33:41;99346.41;;;0.86;98.18
59531;BME280;45349;48.692;8.186;2023-03-04T08:36:09;99343.69;;;0.90;96.86
59531;BME280;45349;48.692;8.186;2023-03-04T08:38:36;99347.44;;;1.01;95.94
59531;BME280;45349;48.692;8.186;2023-03-04T08:41:02;99356.38;;;1.12;95.21
59531;BME280;45349;48.692;8.186;2023-03-04T08:43:32;99351.97;;;1.14;94.84
59531;BME280;45349;48.692;8.186;2023-03-04T08:46:00;99353.97;;;1.26;93.54
59531;BME280;45349;48.692;8.186;2023-03-04T08:48:27;99359.44;;;1.38;93.72
59531;BME280;45349;48.692;8.186;2023-03-04T08:50:53;99356.66;;;1.42;92.97
59531;BME280;45349;48.692;8.186;2023-03-04T08:53:20;99352.78;;;1.33;91.55
59531;BME280;45349;48.692;8.186;2023-03-04T08:55:47;99355.81;;;1.42;93.04
59531;BME280;45349;48.692;8.186;2023-03-04T08:58:14;99367.16;;;1.38;92.25
59531;BME280;45349;48.692;8.186;2023-03-04T09:00:44;99367.56;;;1.47;91.47
59531;BME280;45349;48.692;8.186;2023-03-04T09:03:14;99362.19;;;1.52;91.33
59531;BME280;45349;48.692;8.186;2023-03-04T09:05:43;99362.47;;;1.46;90.87
59531;BME280;45349;48.692;8.186;2023-03-04T09:08:10;99366.13;;;1.59;90.08
59531;BME280;45349;48.692;8.186;2023-03-04T09:10:37;99367.94;;;1.57;89.81
59531;BME280;45349;48.692;8.186;2023-03-04T09:13:03;99361.78;;;1.60;89.58
59531;BME280;45349;48.692;8.186;2023-03-04T09:15:30;99362.72;;;1.59;89.60
59531;BME280;45349;48.692;8.186;2023-03-04T09:18:00;99355.88;;;1.75;88.56
59531;BME280;45349;48.692;8.186;2023-03-04T09:20:28;99352.03;;;1.67;87.96
59531;BME280;45349;48.692;8.186;2023-03-04T09:22:55;99360.56;;;1.67;88.00
59531;BME280;45349;48.692;8.186;2023-03-04T09:25:22;99356.63;;;1.60;88.87
59531;BME280;45349;48.692;8.186;2023-03-04T09:27:48;99348.34;;;1.55;88.00
59531;BME280;45349;48.692;8.186;2023-03-04T09:30:15;99356.44;;;1.65;87.48
59531;BME280;45349;48.692;8.186;2023-03-04T09:32:42;99364.81;;;1.68;87.53
59531;BME280;45349;48.692;8.186;2023-03-04T09:35:08;99359.91;;;1.81;87.88
59531;BME280;45349;48.692;8.186;2023-03-04T09:37:36;99357.34;;;1.81;87.07
59531;BME280;45349;48.692;8.186;2023-03-04T09:40:04;99351.47;;;1.95;85.88
59531;BME280;45349;48.692;8.186;2023-03-04T09:42:34;99355.13;;;1.91;86.48
59531;BME280;45349;48.692;8.186;2023-03-04T09:45:03;99353.84;;;2.00;86.56
59531;BME280;45349;48.692;8.186;2023-03-04T09:47:33;99355.34;;;2.04;86.57
59531;BME280;45349;48.692;8.186;2023-03-04T09:50:02;99357.59;;;2.10;86.45
59531;BME280;45349;48.692;8.186;2023-03-04T09:52:41;99360.34;;;2.07;86.01
59531;BME280;45349;48.692;8.186;2023-03-04T09:55:17;99367.63;;;1.99;86.28
59531;BME280;45349;48.692;8.186;2023-03-04T09:57:51;99367.31;;;2.05;86.10
59531;BME280;45349;48.692;8.186;2023-03-04T10:00:20;99362.63;;;1.96;86.20
59531;BME280;45349;48.692;8.186;2023-03-04T10:03:09;99365.50;;;1.89;85.22
59531;BME280;45349;48.692;8.186;2023-03-04T10:05:42;99367.47;;;2.02;85.12
59531;BME280;45349;48.692;8.186;2023-03-04T10:08:23;99372.47;;;2.05;85.19
59531;BME280;45349;48.692;8.186;2023-03-04T10:10:53;99370.66;;;2.23;85.38
59531;BME280;45349;48.692;8.186;2023-03-04T10:13:28;99374.22;;;2.20;84.92
59531;BME280;45349;48.692;8.186;2023-03-04T10:15:58;99377.50;;;2.24;83.27
59531;BME280;45349;48.692;8.186;2023-03-04T10:18:29;99373.53;;;2.34;83.24
59531;BME280;45349;48.692;8.186;2023-03-04T10:21:01;99373.00;;;2.28;82.94
59531;BME280;45349;48.692;8.186;2023-03-04T10:23:34;99370.63;;;2.41;82.11
59531;BME280;45349;48.692;8.186;2023-03-04T10:26:11;99364.16;;;2.49;81.49
59531;BME280;45349;48.692;8.186;2023-03-04T10:28:38;99360.75;;;2.65;80.68
59531;BME280;45349;48.692;8.186;2023-03-04T10:31:10;99359.84;;;2.66;80.34
59531;BME280;45349;48.692;8.186;2023-03-04T10:33:40;99356.84;;;2.42;80.95
59531;BME280;45349;48.692;8.186;2023-03-04T10:36:21;99361.50;;;2.67;79.86
59531;BME280;45349;48.692;8.186;2023-03-04T10:38:54;99364.69;;;2.72;78.41
59531;BME280;45349;48.692;8.186;2023-03-04T10:41:24;99360.78;;;2.97;77.94
59531;BME280;45349;48.692;8.186;2023-03-04T10:44:00;99363.09;;;2.86;77.35
59531;BME280;45349;48.692;8.186;2023-03-04T10:46:27;99363.41;;;2.95;76.82
59531;BME280;45349;48.692;8.186;2023-03-04T10:48:54;99361.69;;;2.96;76.06
59531;BME280;45349;48.692;8.186;2023-03-04T10:51:23;99359.56;;;3.19;76.78
59531;BME280;45349;48.692;8.186;2023-03-04T10:53:55;99365.22;;;3.25;76.55
59531;BME280;45349;48.692;8.186;2023-03-04T10:56:34;99355.94;;;3.37;73.78
59531;BME280;45349;48.692;8.186;2023-03-04T10:59:36;99359.56;;;3.19;75.04
59531;BME280;45349;48.692;8.186;2023-03-04T11:02:15;99352.22;;;3.27;74.36
59531;BME280;45349;48.692;8.186;2023-03-04T11:04:41;99350.63;;;3.40;72.81
59531;BME280;45349;48.692;8.186;2023-03-04T11:07:09;99345.94;;;3.47;74.09
59531;BME280;45349;48.692;8.186;2023-03-04T11:09:37;99351.00;;;3.49;72.34
59531;BME280;45349;48.692;8.186;2023-03-04T11:12:10;99351.53;;;3.39;71.87
59531;BME280;45349;48.692;8.186;2023-03-04T11:14:39;99346.38;;;3.39;71.51
59531;BME280;45349;48.692;8.186;2023-03-04T11:17:20;99340.91;;;3.30;71.12
59531;BME280;45349;48.692;8.186;2023-03-04T11:19:51;99345.28;;;3.44;72.33
59531;BME280;45349;48.692;8.186;2023-03-04T11:22:21;99333.78;;;3.49;71.39
59531;BME280;45349;48.692;8.186;2023-03-04T11:24:55;99337.78;;;3.69;70.91
59531;BME280;45349;48.692;8.186;2023-03-04T11:27:28;99330.06;;;3.84;69.94
59531;BME280;45349;48.692;8.186;2023-03-04T11:29:59;99327.84;;;3.78;70.93
59531;BME280;45349;48.692;8.186;2023-03-04T11:32:31;99326.47;;;4.01;69.26
59531;BME280;45349;48.692;8.186;2023-03-04T11:35:05;99322.25;;;4.14;68.98
59531;BME280;45349;48.692;8.186;2023-03-04T11:37:41;99318.19;;;4.25;66.98
59531;BME280;45349;48.692;8.186;2023-03-04T11:40:13;99311.78;;;4.31;68.10
59531;BME280;45349;48.692;8.186;2023-03-04T11:42:45;99312.31;;;4.50;67.98
59531;BME280;45349;48.692;8.186;2023-03-04T11:45:16;99314.34;;;4.60;67.63
59531;BME280;45349;48.692;8.186;2023-03-04T11:47:53;99306.50;;;4.61;67.39
59531;BME280;45349;48.692;8.186;2023-03-04T11:50:30;99304.69;;;4.49;66.55
59531;BME280;45349;48.692;8.186;2023-03-04T11:53:19;99300.69;;;4.57;67.84
59531;BME280;45349;48.692;8.186;2023-03-04T11:56:02;99302.81;;;4.51;66.90
59531;BME280;45349;48.692;8.186;2023-03-04T11:58:46;99301.22;;;4.63;65.86
59531;BME280;45349;48.692;8.186;2023-03-04T12:01:22;99297.13;;;4.46;65.92
59531;BME280;45349;48.692;8.186;2023-03-04T12:04:09;99288.69;;;4.56;65.96
59531;BME280;45349;48.692;8.186;2023-03-04T12:06:49;99290.19;;;4.46;65.83
59531;BME280;45349;48.692;8.186;2023-03-04T12:09:34;99291.84;;;4.47;66.93
59531;BME280;45349;48.692;8.186;2023-03-04T12:12:21;99273.53;;;4.50;66.65
59531;BME280;45349;48.692;8.186;2023-03-04T12:14:57;99274.03;;;4.42;66.22
59531;BME280;45349;48.692;8.186;2023-03-04T12:17:40;99271.06;;;4.49;67.93
59531;BME280;45349;48.692;8.186;2023-03-04T12:20:23;99269.56;;;4.59;67.53
59531;BME280;45349;48.692;8.186;2023-03-04T12:22:54;99272.13;;;4.73;65.72
59531;BME280;45349;48.692;8.186;2023-03-04T12:25:36;99267.44;;;4.51;65.22
59531;BME280;45349;48.692;8.186;2023-03-04T12:28:21;99262.34;;;4.92;67.33
59531;BME280;45349;48.692;8.186;2023-03-04T12:31:03;99271.66;;;4.67;65.31
59531;BME280;45349;48.692;8.186;2023-03-04T12:33:39;99256.91;;;4.82;65.35
59531;BME280;45349;48.692;8.186;2023-03-04T12:36:16;99254.63;;;4.77;66.06
59531;BME280;45349;48.692;8.186;2023-03-04T12:38:55;99257.16;;;4.92;65.04
59531;BME280;45349;48.692;8.186;2023-03-04T12:41:33;99256.78;;;4.98;64.71
59531;BME280;45349;48.692;8.186;2023-03-04T12:44:12;99251.66;;;5.24;63.61
59531;BME280;45349;48.692;8.186;2023-03-04T12:46:54;99253.13;;;5.41;63.40
59531;BME280;45349;48.692;8.186;2023-03-04T12:49:31;99239.13;;;5.30;64.01
59531;BME280;45349;48.692;8.186;2023-03-04T12:52:11;99242.56;;;4.91;63.76
59531;BME280;45349;48.692;8.186;2023-03-04T12:54:40;99242.84;;;5.13;63.66
59531;BME280;45349;48.692;8.186;2023-03-04T12:57:10;99251.53;;;5.12;63.58
59531;BME280;45349;48.692;8.186;2023-03-04T12:59:45;99235.28;;;4.83;64.30
59531;BME280;45349;48.692;8.186;2023-03-04T13:02:28;99246.63;;;5.08;63.03
59531;BME280;45349;48.692;8.186;2023-03-04T13:05:05;99240.97;;;5.15;62.48
59531;BME280;45349;48.692;8.186;2023-03-04T13:07:40;99239.53;;;5.11;63.93
59531;BME280;45349;48.692;8.186;2023-03-04T13:10:10;99238.81;;;5.35;63.33